createdAt,value
2022-10-01T00:02:25.000Z,22.98
2022-10-01T00:07:24.000Z,22.17
2022-10-01T00:12:25.000Z,22.95
2022-10-01T00:17:25.000Z,21.93
2022-10-01T00:22:24.000Z,22.65
2022-10-01T00:27:24.000Z,22.98
2022-10-01T00:32:24.000Z,23.4
2022-10-01T00:37:24.000Z,23.52
2022-10-01T00:42:24.000Z,23.89
2022-10-01T00:47:25.000Z,23.87
2022-10-01T00:52:25.000Z,23.4
2022-10-01T00:57:25.000Z,24.42
2022-10-01T01:02:25.000Z,23.99
2022-10-01T01:07:24.000Z,24.43
2022-10-01T01:12:25.000Z,25.37
2022-10-01T01:17:24.000Z,26.42
2022-10-01T01:22:24.000Z,26.92
2022-10-01T01:27:24.000Z,28.01
2022-10-01T01:32:24.000Z,28.81
2022-10-01T01:37:24.000Z,27.96
2022-10-01T01:42:25.000Z,27.18
2022-10-01T01:47:25.000Z,27.84
2022-10-01T01:52:25.000Z,27.61
2022-10-01T01:57:24.000Z,28.18
2022-10-01T02:02:24.000Z,29.02
2022-10-01T02:07:25.000Z,28.73
2022-10-01T02:12:25.000Z,29.9
2022-10-01T02:17:24.000Z,30.93
2022-10-01T02:22:24.000Z,31.74
2022-10-01T02:27:25.000Z,32.43
2022-10-01T02:32:25.000Z,32.65
2022-10-01T02:37:24.000Z,33.39
2022-10-01T02:42:24.000Z,34.15
2022-10-01T02:47:25.000Z,34.18
2022-10-01T02:52:25.000Z,34.75
2022-10-01T02:57:25.000Z,35.16
2022-10-01T03:02:24.000Z,35.9
2022-10-01T03:12:25.000Z,36.74
2022-10-01T03:17:24.000Z,35.93
2022-10-01T03:27:24.000Z,36.91
2022-10-01T03:32:25.000Z,36.6
2022-10-01T03:37:25.000Z,36.87
2022-10-01T03:42:24.000Z,36.05
2022-10-01T03:47:24.000Z,36.46
2022-10-01T03:52:25.000Z,36.86
2022-10-01T03:57:24.000Z,36.33
2022-10-01T04:02:24.000Z,35.35
2022-10-01T04:07:25.000Z,35.36
2022-10-01T04:12:24.000Z,35
2022-10-01T04:17:24.000Z,36.27
2022-10-01T04:22:25.000Z,36.21
2022-10-01T04:27:24.000Z,35.56
2022-10-01T04:32:24.000Z,35.53
2022-10-01T04:37:24.000Z,35.84
2022-10-01T04:42:24.000Z,36.37
2022-10-01T04:47:25.000Z,36.04
2022-10-01T04:52:24.000Z,36.07
2022-10-01T04:57:25.000Z,35.54
2022-10-01T05:02:25.000Z,36.35
2022-10-01T05:07:24.000Z,35.61
2022-10-01T05:12:24.000Z,35.01
2022-10-01T05:17:24.000Z,36.29
2022-10-01T05:22:25.000Z,36.18
2022-10-01T05:27:24.000Z,37.34
2022-10-01T05:32:24.000Z,36.18
2022-10-01T05:37:24.000Z,34.32
2022-10-01T05:42:25.000Z,33.92
2022-10-01T05:47:25.000Z,31.82
2022-10-01T05:52:24.000Z,31.31
2022-10-01T05:57:24.000Z,30.14
2022-10-01T06:02:24.000Z,29.52
2022-10-01T06:07:24.000Z,30.23
2022-10-01T06:12:25.000Z,32.34
2022-10-01T06:22:24.000Z,32.66
2022-10-01T06:27:24.000Z,33.71
2022-10-01T06:32:25.000Z,31.97
2022-10-01T06:37:24.000Z,31.76
2022-10-01T06:42:24.000Z,31.85
2022-10-01T06:47:24.000Z,33.8
2022-10-01T06:52:24.000Z,34.98
2022-10-01T07:02:25.000Z,32.97
2022-10-01T07:07:24.000Z,31.65
2022-10-01T07:12:25.000Z,31.2
2022-10-01T07:17:25.000Z,30.49
2022-10-01T07:22:25.000Z,28.62
2022-10-01T07:27:24.000Z,27.48
2022-10-01T07:32:25.000Z,26.53
2022-10-01T07:37:25.000Z,26.73
2022-10-01T07:42:24.000Z,26.63
2022-10-01T07:47:25.000Z,26.25
2022-10-01T07:52:24.000Z,25.99
2022-10-01T07:57:24.000Z,25.55
2022-10-01T08:02:25.000Z,24.35
2022-10-01T08:07:24.000Z,24.36
2022-10-01T08:12:25.000Z,24.81
2022-10-01T08:17:24.000Z,23.8
2022-10-01T08:22:24.000Z,23.13
2022-10-01T08:27:24.000Z,23.07
2022-10-01T08:32:25.000Z,21.99
2022-10-01T08:37:25.000Z,21.71
2022-10-01T08:42:25.000Z,22.52
2022-10-01T08:47:25.000Z,23.1
2022-10-01T08:52:24.000Z,24.27
2022-10-01T08:57:25.000Z,25.14
2022-10-01T09:02:25.000Z,25.59
2022-10-01T09:07:24.000Z,26.07
2022-10-01T09:12:25.000Z,27.8
2022-10-01T09:17:24.000Z,27.67
2022-10-01T09:22:24.000Z,27.88
2022-10-01T09:27:25.000Z,28.35
2022-10-01T09:32:24.000Z,27.92
2022-10-01T09:37:24.000Z,27.29
2022-10-01T09:42:25.000Z,26.83
2022-10-01T09:47:25.000Z,27.38
2022-10-01T09:52:24.000Z,26.12
2022-10-01T09:57:25.000Z,26.57
2022-10-01T10:02:25.000Z,26.4
2022-10-01T10:07:24.000Z,26.74
2022-10-01T10:12:24.000Z,26.12
2022-10-01T10:17:24.000Z,25.34
2022-10-01T10:22:24.000Z,25.75
2022-10-01T10:27:24.000Z,25.29
2022-10-01T10:32:24.000Z,25.14
2022-10-01T10:37:25.000Z,25.73
2022-10-01T10:42:25.000Z,25.99
2022-10-01T10:47:24.000Z,26.2
2022-10-01T10:52:25.000Z,25.9
2022-10-01T10:57:24.000Z,26.04
2022-10-01T11:02:25.000Z,24.21
2022-10-01T11:07:24.000Z,23.21
2022-10-01T11:12:24.000Z,23.56
2022-10-01T11:17:24.000Z,26.01
2022-10-01T11:22:25.000Z,29.86
2022-10-01T11:27:25.000Z,28.94
2022-10-01T11:32:25.000Z,29.4
2022-10-01T11:37:25.000Z,27.94
2022-10-01T11:42:24.000Z,27.04
2022-10-01T11:47:24.000Z,28.1
2022-10-01T11:52:24.000Z,28.66
2022-10-01T11:57:24.000Z,28.32
2022-10-01T12:02:24.000Z,29.04
2022-10-01T12:07:25.000Z,28.58
2022-10-01T12:12:24.000Z,28.39
2022-10-01T12:17:24.000Z,28.41
2022-10-01T12:22:24.000Z,27.63
2022-10-01T12:27:24.000Z,28.38
2022-10-01T12:32:24.000Z,28.99
2022-10-01T12:37:25.000Z,29.36
2022-10-01T12:42:24.000Z,29.97
2022-10-01T12:47:24.000Z,30.64
2022-10-01T12:52:24.000Z,31.72
2022-10-01T12:57:24.000Z,32.9
2022-10-01T13:02:24.000Z,35.54
2022-10-01T13:07:24.000Z,40.38
2022-10-01T13:12:25.000Z,41.59
2022-10-01T13:17:25.000Z,35.75
2022-10-01T13:22:24.000Z,35.17
2022-10-01T13:27:24.000Z,34.59
2022-10-01T13:32:25.000Z,35.17
2022-10-01T13:37:24.000Z,32.95
2022-10-01T13:42:24.000Z,32.44
2022-10-01T13:47:24.000Z,33.68
2022-10-01T13:52:25.000Z,32.98
2022-10-01T13:57:24.000Z,32.35
2022-10-01T14:02:25.000Z,38.98
2022-10-01T14:07:24.000Z,34.98
2022-10-01T14:12:24.000Z,35.22
2022-10-01T14:17:25.000Z,35.25
2022-10-01T14:22:24.000Z,34.89
2022-10-01T14:27:25.000Z,32.78
2022-10-01T14:32:24.000Z,32.37
2022-10-01T14:37:24.000Z,32.15
2022-10-01T14:42:25.000Z,33.12
2022-10-01T14:47:25.000Z,34.03
2022-10-01T14:52:24.000Z,34.91
2022-10-01T14:57:25.000Z,36.08
2022-10-01T15:02:25.000Z,38.84
2022-10-01T15:07:24.000Z,42.8
2022-10-01T15:12:24.000Z,38.23
2022-10-01T15:17:24.000Z,35.63
2022-10-01T15:22:25.000Z,36.13
2022-10-01T15:27:24.000Z,42.07
2022-10-01T15:32:24.000Z,41.81
2022-10-01T15:37:24.000Z,36.57
2022-10-01T15:42:25.000Z,43.77
2022-10-01T15:47:25.000Z,43.02
2022-10-01T15:52:24.000Z,49.5
2022-10-01T15:57:25.000Z,52.08
2022-10-01T16:02:25.000Z,48.02
2022-10-01T16:07:24.000Z,47.72
2022-10-01T16:12:24.000Z,50.08
2022-10-01T16:17:24.000Z,49.63
2022-10-01T16:22:25.000Z,51.73
2022-10-01T16:27:24.000Z,55.36
2022-10-01T16:32:24.000Z,50.31
2022-10-01T16:37:24.000Z,50.94
2022-10-01T16:42:24.000Z,49.65
2022-10-01T16:47:25.000Z,45.27
2022-10-01T16:52:25.000Z,41.19
2022-10-01T16:57:24.000Z,42.92
2022-10-01T17:02:24.000Z,38.66
2022-10-01T17:07:25.000Z,38.33
2022-10-01T17:12:25.000Z,36.37
2022-10-01T17:17:25.000Z,34.02
2022-10-01T17:22:25.000Z,34.39
2022-10-01T17:27:24.000Z,33.89
2022-10-01T17:32:24.000Z,34.18
2022-10-01T17:37:25.000Z,33.82
2022-10-01T17:42:24.000Z,33.25
2022-10-01T17:47:25.000Z,33.77
2022-10-01T17:52:24.000Z,33.52
2022-10-01T18:02:24.000Z,31.93
2022-10-01T18:07:24.000Z,31.5
2022-10-01T18:12:24.000Z,32.3
2022-10-01T18:17:25.000Z,31.36
2022-10-01T18:22:25.000Z,30.02
2022-10-01T18:27:24.000Z,28.42
2022-10-01T18:32:24.000Z,26.79
2022-10-01T18:37:24.000Z,25.79
2022-10-01T18:42:24.000Z,24.36
2022-10-01T18:47:24.000Z,24.84
2022-10-01T18:52:24.000Z,23.97
2022-10-01T18:57:25.000Z,23.38
2022-10-01T19:02:24.000Z,23.36
2022-10-01T19:07:24.000Z,22.19
2022-10-01T19:12:24.000Z,22.52
2022-10-01T19:17:25.000Z,22.88
2022-10-01T19:22:24.000Z,23.24
2022-10-01T19:27:25.000Z,23.96
2022-10-01T19:32:24.000Z,22.18
2022-10-01T19:37:25.000Z,19.4
2022-10-01T19:42:25.000Z,16.2
2022-10-01T19:47:24.000Z,16.72
2022-10-01T19:52:25.000Z,18.49
2022-10-01T19:57:24.000Z,17.29
2022-10-01T20:02:24.000Z,16.9
2022-10-01T20:07:24.000Z,16.78
2022-10-01T20:12:24.000Z,17.42
2022-10-01T20:17:24.000Z,18.18
2022-10-01T20:22:25.000Z,17.4
2022-10-01T20:27:24.000Z,17.05
2022-10-01T20:32:25.000Z,16.98
2022-10-01T20:37:24.000Z,17.03
2022-10-01T20:42:25.000Z,16.77
2022-10-01T20:47:25.000Z,16.29
2022-10-01T20:52:24.000Z,16.49
2022-10-01T20:57:24.000Z,17.52
2022-10-01T21:02:25.000Z,17.96
2022-10-01T21:07:25.000Z,16.86
2022-10-01T21:12:25.000Z,16.27
2022-10-01T21:17:24.000Z,15.93
2022-10-01T21:22:24.000Z,15.83
2022-10-01T21:27:24.000Z,15.63
2022-10-01T21:32:25.000Z,15.37
2022-10-01T21:37:25.000Z,14.4
2022-10-01T21:42:24.000Z,13.11
2022-10-01T21:47:25.000Z,12.15
2022-10-01T21:52:25.000Z,11.85
2022-10-01T21:57:25.000Z,11.67
2022-10-01T22:02:24.000Z,12.06
2022-10-01T22:07:24.000Z,11.54
2022-10-01T22:12:24.000Z,11.81
2022-10-01T22:17:25.000Z,12.64
2022-10-01T22:22:25.000Z,13
2022-10-01T22:27:24.000Z,13.19
2022-10-01T22:32:24.000Z,13.15
2022-10-01T22:37:24.000Z,13.16
2022-10-01T22:42:24.000Z,13.25
2022-10-01T22:47:25.000Z,13.93
2022-10-01T22:52:25.000Z,14.47
2022-10-01T22:57:25.000Z,14.8
2022-10-01T23:02:24.000Z,15.22
2022-10-01T23:07:24.000Z,15.87
2022-10-01T23:12:25.000Z,16.13
2022-10-01T23:17:25.000Z,16.2
2022-10-01T23:22:24.000Z,15.61
2022-10-01T23:27:25.000Z,15.19
2022-10-01T23:32:25.000Z,14.81
2022-10-01T23:37:24.000Z,14.19
2022-10-01T23:42:24.000Z,14.3
2022-10-01T23:47:24.000Z,14.93
2022-10-01T23:52:25.000Z,13.69
2022-10-01T23:57:25.000Z,11.99
